Time;durP1;ratioP1;P1;durP2;ratioP2;P2;SDS_P1;SDS_P2;PMS_P1;PMS_P2;Temp;Humidity;BMP_temperature;BMP_pressure;BME280_temperature;BME280_humidity;BME280_pressure;Samples;Min_cycle;Max_cycle;Signal;HPM_P1;HPM_P2
2023/12/20 00:01:21;;;;;;;17.53;13.17;;;;;;;5.43;100.00;99562.00;4992716;28;20278;-59
2023/12/20 00:03:49;;;;;;;16.53;12.63;;;;;;;5.43;100.00;99556.03;4993349;28;20219;-59
2023/12/20 00:06:17;;;;;;;16.83;12.37;;;;;;;5.43;100.00;99549.22;4993673;28;20204;-58
2023/12/20 00:08:45;;;;;;;16.43;13.30;;;;;;;5.43;100.00;99548.38;4994982;28;20651;-60
2023/12/20 00:11:12;;;;;;;14.70;12.40;;;;;;;5.44;100.00;99537.28;4992527;28;20283;-59
2023/12/20 00:13:40;;;;;;;14.53;12.13;;;;;;;5.43;100.00;99535.59;4994921;28;20230;-58
2023/12/20 00:16:10;;;;;;;15.00;12.80;;;;;;;5.43;100.00;99533.88;4995346;28;20622;-59
2023/12/20 00:18:38;;;;;;;16.80;11.43;;;;;;;5.42;100.00;99534.75;4989202;28;20207;-58
2023/12/20 00:21:06;;;;;;;17.67;12.07;;;;;;;5.45;100.00;99526.22;4993341;28;20231;-58
2023/12/20 00:23:34;;;;;;;14.17;11.93;;;;;;;5.46;100.00;99531.34;4997860;28;20562;-59
2023/12/20 00:26:02;;;;;;;14.53;11.47;;;;;;;5.44;100.00;99527.06;4985089;28;20200;-61
2023/12/20 00:28:30;;;;;;;16.10;12.53;;;;;;;5.44;100.00;99538.13;4998029;28;20204;-58
2023/12/20 00:30:58;;;;;;;14.43;12.17;;;;;;;5.44;100.00;99530.47;5000536;28;20659;-60
2023/12/20 00:33:27;;;;;;;16.40;12.10;;;;;;;5.48;100.00;99531.34;4997943;28;20208;-61
2023/12/20 00:35:55;;;;;;;14.37;11.97;;;;;;;5.47;100.00;99521.97;4988765;28;20660;-60
2023/12/20 00:38:23;;;;;;;14.60;12.53;;;;;;;5.49;100.00;99525.38;4997692;28;20204;-59
2023/12/20 00:40:51;;;;;;;16.27;11.57;;;;;;;5.47;100.00;99530.47;4993272;28;20204;-60
2023/12/20 00:43:19;;;;;;;15.30;13.17;;;;;;;5.48;100.00;99528.78;5003979;28;20662;-59
2023/12/20 00:45:47;;;;;;;15.57;11.80;;;;;;;5.48;100.00;99524.50;4996340;28;20207;-57
2023/12/20 00:48:15;;;;;;;16.30;12.53;;;;;;;5.50;100.00;99519.41;4998531;28;20211;-59
2023/12/20 00:50:45;;;;;;;15.87;12.07;;;;;;;5.49;100.00;99518.56;4994374;28;20323;-59
2023/12/20 00:53:13;;;;;;;14.47;11.60;;;;;;;5.49;100.00;99510.06;5000066;28;20279;-60
2023/12/20 00:55:41;;;;;;;14.00;11.07;;;;;;;5.52;100.00;99507.47;4993980;28;20203;-58
2023/12/20 00:58:08;;;;;;;14.43;10.60;;;;;;;5.52;100.00;99518.59;4992076;28;20207;-59
2023/12/20 01:00:36;;;;;;;14.83;11.47;;;;;;;5.51;100.00;99508.34;4997456;28;20204;-60
2023/12/20 01:03:05;;;;;;;13.30;11.03;;;;;;;5.52;100.00;99507.47;4995065;28;20642;-57
2023/12/20 01:05:33;;;;;;;13.77;11.33;;;;;;;5.54;100.00;99508.34;4993815;28;20580;-56
2023/12/20 01:08:02;;;;;;;13.93;11.37;;;;;;;5.51;100.00;99498.13;4996384;28;20195;-58
2023/12/20 01:10:30;;;;;;;13.93;11.23;;;;;;;5.52;100.00;99510.03;4994326;28;20316;-56
2023/12/20 01:12:58;;;;;;;15.27;10.87;;;;;;;5.51;100.00;99504.06;5000838;28;20215;-55
2023/12/20 01:15:26;;;;;;;13.87;10.50;;;;;;;5.53;100.00;99504.09;4995064;28;20208;-55
2023/12/20 01:17:56;;;;;;;13.47;9.97;;;;;;;5.55;100.00;99497.25;4995610;28;20230;-56
2023/12/20 01:20:24;;;;;;;13.27;11.10;;;;;;;5.54;100.00;99504.09;4993252;28;20262;-56
2023/12/20 01:22:52;;;;;;;12.03;10.30;;;;;;;5.56;100.00;99494.72;4996865;28;20208;-55
2023/12/20 01:25:21;;;;;;;13.27;11.17;;;;;;;5.55;100.00;99492.16;4988830;28;20268;-57
2023/12/20 01:27:49;;;;;;;14.90;10.57;;;;;;;5.53;100.00;99476.84;4989167;28;20698;-56
2023/12/20 01:30:17;;;;;;;15.20;11.70;;;;;;;5.53;100.00;99484.50;4992679;28;20287;-59
2023/12/20 01:32:45;;;;;;;12.60;10.63;;;;;;;5.54;100.00;99495.56;4992988;28;20283;-56
2023/12/20 01:35:14;;;;;;;12.00;9.77;;;;;;;5.57;100.00;99490.47;4999578;28;20647;-55
2023/12/20 01:37:42;;;;;;;13.33;10.27;;;;;;;5.56;100.00;99479.41;4995865;28;20242;-56
2023/12/20 01:40:11;;;;;;;13.60;10.30;;;;;;;5.57;100.00;99478.53;4995022;28;20215;-57
2023/12/20 01:42:41;;;;;;;12.50;10.23;;;;;;;5.58;100.00;99471.72;4999117;28;20651;-56
2023/12/20 01:45:09;;;;;;;11.57;10.37;;;;;;;5.59;100.00;99486.19;5001707;28;20675;-56
2023/12/20 01:47:38;;;;;;;12.10;10.17;;;;;;;5.57;100.00;99480.25;4988426;28;20238;-55
2023/12/20 01:50:08;;;;;;;12.43;9.63;;;;;;;5.57;100.00;99475.97;4997853;28;20204;-57
2023/12/20 01:52:36;;;;;;;13.10;9.40;;;;;;;5.59;100.00;99483.63;5004010;28;20650;-55
2023/12/20 01:55:12;;;;;;;12.90;9.17;;;;;;;5.61;100.00;99471.72;5004830;28;20196;-56
2023/12/20 01:57:43;;;;;;;9.83;7.73;;;;;;;5.59;100.00;99470.84;4990108;28;20239;-57
2023/12/20 02:00:14;;;;;;;13.73;9.60;;;;;;;5.60;100.00;99470.03;4991902;28;20203;-59
2023/12/20 02:02:42;;;;;;;11.27;8.87;;;;;;;5.60;100.00;99456.38;4997338;28;20212;-56
2023/12/20 02:05:10;;;;;;;11.27;8.83;;;;;;;5.59;100.00;99463.19;4986299;28;20295;-56
2023/12/20 02:07:38;;;;;;;10.03;7.70;;;;;;;5.61;100.00;99475.97;4996071;28;20208;-58
2023/12/20 02:10:09;;;;;;;9.70;7.90;;;;;;;5.58;100.00;99461.50;4994734;28;20208;-57
2023/12/20 02:12:36;;;;;;;8.90;7.10;;;;;;;5.58;100.00;99457.22;4981064;28;20216;-56
2023/12/20 02:15:07;;;;;;;8.47;7.03;;;;;;;5.61;100.00;99460.66;4994403;28;20247;-58
2023/12/20 02:17:39;;;;;;;10.07;7.43;;;;;;;5.61;100.00;99456.38;4990830;28;20629;-56
2023/12/20 02:20:08;;;;;;;9.80;6.83;;;;;;;5.62;100.00;99455.53;5004372;28;20678;-61
2023/12/20 02:22:37;;;;;;;8.77;7.13;;;;;;;5.62;100.00;99452.97;4986998;28;20605;-56
2023/12/20 02:25:06;;;;;;;7.97;6.70;;;;;;;5.63;100.00;99458.94;5000682;28;20303;-54
2023/12/20 02:27:35;;;;;;;8.40;6.57;;;;;;;5.61;100.00;99451.28;4991753;28;20541;-57
2023/12/20 02:30:04;;;;;;;7.37;6.37;;;;;;;5.60;100.00;99454.69;4997475;28;20255;-59
2023/12/20 02:32:31;;;;;;;9.03;6.43;;;;;;;5.61;100.00;99443.59;4988185;28;20215;-55
2023/12/20 02:34:59;;;;;;;7.60;6.13;;;;;;;5.61;100.00;99435.94;4989494;28;20250;-57
2023/12/20 02:37:27;;;;;;;6.57;5.83;;;;;;;5.64;100.00;99429.97;4992896;28;20208;-56
2023/12/20 02:39:57;;;;;;;6.40;5.70;;;;;;;5.63;100.00;99431.66;4989221;28;20200;-56
2023/12/20 02:42:25;;;;;;;6.13;4.63;;;;;;;5.64;100.00;99427.44;4994941;28;20687;-56
2023/12/20 02:44:53;;;;;;;6.90;5.03;;;;;;;5.63;100.00;99421.44;5001918;28;20218;-54
2023/12/20 02:47:20;;;;;;;5.00;4.23;;;;;;;5.65;99.75;99426.56;4991113;28;20639;-56
2023/12/20 02:49:49;;;;;;;5.53;4.07;;;;;;;5.65;99.32;99424.84;4995456;28;20215;-55
2023/12/20 02:52:17;;;;;;;4.17;3.30;;;;;;;5.64;98.56;99420.59;4996007;28;20651;-56
2023/12/20 02:54:45;;;;;;;3.67;3.23;;;;;;;5.66;98.58;99415.47;5000644;28;20203;-55
2023/12/20 02:57:14;;;;;;;4.33;3.00;;;;;;;5.66;98.81;99418.88;5001805;28;20199;-64
2023/12/20 02:59:42;;;;;;;3.10;2.80;;;;;;;5.68;99.11;99412.06;4989387;28;20289;-56
2023/12/20 03:02:10;;;;;;;3.57;3.07;;;;;;;5.69;98.13;99413.78;4996918;28;20578;-55
2023/12/20 03:04:38;;;;;;;3.70;3.30;;;;;;;5.72;99.28;99408.66;4995447;28;20214;-57
2023/12/20 03:07:06;;;;;;;3.60;3.20;;;;;;;5.74;98.77;99418.88;4993490;28;20250;-55
2023/12/20 03:09:34;;;;;;;4.13;3.50;;;;;;;5.75;98.64;99418.03;4992662;28;20730;-55
2023/12/20 03:12:23;;;;;;;5.17;3.27;;;;;;;5.74;99.35;99414.63;5002423;28;20212;-56
2023/12/20 03:14:51;;;;;;;4.37;3.50;;;;;;;5.75;98.95;99410.38;4992786;28;20247;-56
2023/12/20 03:17:19;;;;;;;4.30;3.37;;;;;;;5.76;98.88;99405.22;4998397;28;20286;-58
2023/12/20 03:19:47;;;;;;;3.20;2.90;;;;;;;5.78;99.29;99398.44;4999202;28;20277;-58
2023/12/20 03:22:15;;;;;;;4.13;3.53;;;;;;;5.80;99.38;99406.94;5003179;28;20235;-56
2023/12/20 03:24:43;;;;;;;4.13;3.50;;;;;;;5.81;98.45;99418.84;4995372;28;20207;-56
2023/12/20 03:27:11;;;;;;;4.87;3.60;;;;;;;5.83;98.78;99426.53;5004765;28;20605;-57
2023/12/20 03:29:40;;;;;;;5.00;3.70;;;;;;;5.83;99.04;99426.53;5002555;28;20210;-56
2023/12/20 03:32:08;;;;;;;3.63;3.27;;;;;;;5.84;99.24;99417.16;4998122;28;20333;-58
2023/12/20 03:34:36;;;;;;;4.13;3.13;;;;;;;5.84;99.24;99404.38;5003193;28;20239;-59
2023/12/20 03:37:04;;;;;;;4.13;3.33;;;;;;;5.83;98.91;99411.19;4992777;28;20236;-55
2023/12/20 03:39:32;;;;;;;4.53;3.63;;;;;;;5.86;99.25;99407.78;5002224;28;20667;-58
2023/12/20 03:42:00;;;;;;;3.90;3.50;;;;;;;5.86;99.11;99395.84;5000259;28;20659;-52
2023/12/20 03:44:28;;;;;;;4.27;3.37;;;;;;;5.87;98.45;99401.81;4988869;28;20207;-58
2023/12/20 03:46:57;;;;;;;3.60;3.30;;;;;;;5.88;99.04;99403.50;4996578;28;20582;-56
2023/12/20 03:49:25;;;;;;;3.77;3.33;;;;;;;5.89;99.14;99392.41;5002501;28;20200;-56
2023/12/20 03:51:53;;;;;;;3.80;3.27;;;;;;;5.87;99.50;99400.09;4997867;28;20610;-60
2023/12/20 03:54:21;;;;;;;3.77;3.37;;;;;;;5.88;99.03;99404.34;4992469;28;20210;-59
2023/12/20 03:56:50;;;;;;;4.87;4.10;;;;;;;5.89;98.70;99407.75;4995325;28;20205;-59
2023/12/20 03:59:18;;;;;;;4.67;3.67;;;;;;;5.89;98.87;99405.19;5001410;28;20298;-62
2023/12/20 04:01:46;;;;;;;4.50;3.70;;;;;;;5.91;98.85;99398.38;4995441;28;20207;-59
2023/12/20 04:04:16;;;;;;;4.90;3.97;;;;;;;5.93;99.44;99396.69;4994280;28;20255;-58
2023/12/20 04:06:44;;;;;;;4.63;4.00;;;;;;;5.92;99.36;99400.94;4997724;28;20234;-59
2023/12/20 04:09:12;;;;;;;4.23;3.83;;;;;;;5.92;99.18;99400.06;4994788;28;20214;-58
2023/12/20 04:11:40;;;;;;;6.00;4.40;;;;;;;5.93;99.63;99396.69;4992482;28;20569;-60
2023/12/20 04:14:08;;;;;;;4.17;3.70;;;;;;;5.88;99.08;99394.13;4994614;28;20239;-60
2023/12/20 04:16:36;;;;;;;4.73;3.97;;;;;;;5.81;98.00;99400.09;4999142;28;20729;-60
2023/12/20 04:19:04;;;;;;;3.90;3.50;;;;;;;5.78;99.58;99408.66;4991691;28;20200;-59
2023/12/20 04:21:33;;;;;;;4.43;4.03;;;;;;;5.78;99.11;99408.66;4993856;28;20239;-59
2023/12/20 04:24:01;;;;;;;5.57;4.90;;;;;;;5.78;98.82;99395.88;4996074;28;20200;-59
2023/12/20 04:26:29;;;;;;;6.53;4.90;;;;;;;5.79;99.21;99389.91;4998083;28;20226;-58
2023/12/20 04:28:57;;;;;;;5.50;4.80;;;;;;;5.82;99.36;99399.28;4993236;28;20247;-58
2023/12/20 04:31:25;;;;;;;5.67;5.10;;;;;;;5.82;99.92;99405.22;4997064;28;20222;-59
2023/12/20 04:33:53;;;;;;;6.13;5.53;;;;;;;5.82;99.09;99400.13;4995203;28;20204;-60
2023/12/20 04:36:21;;;;;;;6.80;5.43;;;;;;;5.82;100.00;99394.16;4993775;28;20207;-60
2023/12/20 04:38:50;;;;;;;7.23;5.73;;;;;;;5.82;100.00;99400.13;4991621;28;20303;-57
2023/12/20 04:41:18;;;;;;;7.20;5.77;;;;;;;5.82;100.00;99404.38;4994577;28;20280;-60
2023/12/20 04:43:46;;;;;;;6.33;5.73;;;;;;;5.81;99.34;99406.06;5002442;28;20628;-60
2023/12/20 04:46:14;;;;;;;7.13;5.90;;;;;;;5.81;99.75;99403.50;4995443;28;20222;-59
2023/12/20 04:48:42;;;;;;;8.83;6.53;;;;;;;5.81;99.73;99403.50;4987611;28;20214;-61
2023/12/20 04:51:10;;;;;;;7.97;6.07;;;;;;;5.80;99.38;99406.94;5001380;28;20294;-60
2023/12/20 04:53:38;;;;;;;7.67;6.07;;;;;;;5.82;99.79;99399.28;5000458;28;20204;-60
2023/12/20 04:56:08;;;;;;;6.87;6.17;;;;;;;5.82;99.88;99404.38;4999151;28;20193;-58
2023/12/20 04:58:35;;;;;;;7.93;7.13;;;;;;;5.81;99.91;99403.50;4992196;28;20204;-58
2023/12/20 05:01:04;;;;;;;7.13;6.40;;;;;;;5.79;99.63;99405.22;5003991;28;20207;-60
2023/12/20 05:03:32;;;;;;;6.83;6.10;;;;;;;5.81;100.00;99403.50;5002357;28;20307;-59
2023/12/20 05:06:00;;;;;;;7.43;6.63;;;;;;;5.79;100.00;99396.72;4993863;28;20224;-59
2023/12/20 05:08:28;;;;;;;9.10;6.37;;;;;;;5.81;100.00;99390.72;4990950;28;20675;-57
2023/12/20 05:10:56;;;;;;;8.27;7.03;;;;;;;5.80;100.00;99391.59;4999959;28;20745;-59
2023/12/20 05:13:26;;;;;;;7.53;6.00;;;;;;;5.82;100.00;99395.00;4992471;28;20203;-59
2023/12/20 05:16:08;;;;;;;10.17;7.37;;;;;;;5.81;99.91;99388.16;4989660;28;20204;-59
2023/12/20 05:18:37;;;;;;;7.77;6.60;;;;;;;5.79;99.89;99379.66;4992765;28;20215;-58
2023/12/20 05:21:05;;;;;;;7.67;6.83;;;;;;;5.79;100.00;99374.56;4998504;28;20325;-57
2023/12/20 05:23:33;;;;;;;8.80;7.43;;;;;;;5.80;100.00;99386.47;4993672;28;20208;-59
2023/12/20 05:26:00;;;;;;;8.37;7.30;;;;;;;5.81;100.00;99383.06;4995259;28;20243;-60
2023/12/20 05:28:30;;;;;;;9.30;7.80;;;;;;;5.82;100.00;99384.78;5000404;28;20199;-61
2023/12/20 05:30:58;;;;;;;9.40;7.20;;;;;;;5.81;100.00;99382.22;4991568;28;20204;-59
2023/12/20 05:33:26;;;;;;;8.33;7.27;;;;;;;5.80;100.00;99383.06;4993081;28;20212;-60
2023/12/20 05:35:54;;;;;;;8.23;6.97;;;;;;;5.81;100.00;99383.06;4987301;28;20738;-58
2023/12/20 05:38:22;;;;;;;9.03;7.67;;;;;;;5.80;100.00;99376.25;4993611;28;20207;-60
2023/12/20 05:40:50;;;;;;;9.77;8.03;;;;;;;5.80;100.00;99378.81;4999826;28;20592;-57
2023/12/20 05:43:18;;;;;;;10.20;8.10;;;;;;;5.83;100.00;99377.97;4987643;28;20640;-59
2023/12/20 05:45:47;;;;;;;9.40;8.33;;;;;;;5.87;100.00;99386.47;4992691;28;20749;-58
2023/12/20 05:48:15;;;;;;;8.73;7.83;;;;;;;5.85;100.00;99378.78;4990297;28;20231;-58
2023/12/20 05:50:43;;;;;;;8.90;7.87;;;;;;;5.86;100.00;99380.50;4997117;28;20207;-58
2023/12/20 05:53:11;;;;;;;9.63;7.53;;;;;;;5.87;100.00;99371.13;4996871;28;20566;-59
2023/12/20 05:55:44;;;;;;;11.13;7.20;;;;;;;5.88;100.00;99372.81;4995332;28;20233;-60
2023/12/20 05:58:15;;;;;;;9.40;8.10;;;;;;;5.89;100.00;99379.63;4985798;28;20625;-57
2023/12/20 06:00:44;;;;;;;9.87;8.13;;;;;;;5.84;100.00;99371.13;4993288;28;20986;-58
2023/12/20 06:03:13;;;;;;;8.23;7.03;;;;;;;5.82;100.00;99368.59;4992170;28;20582;-57
2023/12/20 06:05:41;;;;;;;8.87;7.53;;;;;;;5.79;100.00;99372.00;4990065;28;20718;-59
2023/12/20 06:08:09;;;;;;;7.80;7.00;;;;;;;5.76;100.00;99369.44;4993576;28;20668;-58
2023/12/20 06:10:37;;;;;;;8.07;7.03;;;;;;;5.72;100.00;99377.97;4994967;28;20667;-56
2023/12/20 06:13:06;;;;;;;8.20;6.73;;;;;;;5.70;100.00;99369.47;4992762;28;20572;-58
2023/12/20 06:15:35;;;;;;;8.57;7.33;;;;;;;5.71;100.00;99376.28;4989772;28;20227;-59
2023/12/20 06:18:03;;;;;;;9.93;8.27;;;;;;;5.71;100.00;99373.75;4994638;28;21065;-60
2023/12/20 06:20:33;;;;;;;8.47;7.20;;;;;;;5.68;100.00;99381.41;4986070;28;20847;-59
2023/12/20 06:23:00;;;;;;;9.30;7.93;;;;;;;5.67;100.00;99374.59;4987681;28;20214;-58
2023/12/20 06:25:28;;;;;;;8.17;7.33;;;;;;;5.62;100.00;99383.97;4994688;28;20212;-58
2023/12/20 06:27:56;;;;;;;9.47;6.83;;;;;;;5.63;100.00;99383.09;4998340;28;20307;-59
2023/12/20 06:30:25;;;;;;;11.43;7.50;;;;;;;5.62;100.00;99375.44;4985863;28;20218;-61
2023/12/20 06:32:53;;;;;;;8.93;6.87;;;;;;;5.63;100.00;99384.81;4991491;28;20208;-59
2023/12/20 06:35:21;;;;;;;8.43;7.40;;;;;;;5.61;100.00;99382.28;4998065;28;20658;-60
2023/12/20 06:37:50;;;;;;;7.70;6.30;;;;;;;5.58;100.00;99374.59;4995840;28;20219;-59
2023/12/20 06:40:18;;;;;;;10.03;7.20;;;;;;;5.60;100.00;99383.13;4996112;28;20674;-61
2023/12/20 06:42:47;;;;;;;8.40;7.10;;;;;;;5.63;100.00;99377.16;5003857;28;20211;-59
2023/12/20 06:45:31;;;;;;;7.07;6.27;;;;;;;5.62;100.00;99381.41;4998013;28;20212;-60
2023/12/20 06:47:59;;;;;;;8.33;6.83;;;;;;;5.60;100.00;99380.59;4996072;28;20683;-59
2023/12/20 06:50:28;;;;;;;7.63;6.43;;;;;;;5.57;100.00;99383.97;4991952;28;20211;-59
2023/12/20 06:52:57;;;;;;;8.10;7.30;;;;;;;5.57;100.00;99378.03;4993487;28;20690;-58
2023/12/20 06:55:25;;;;;;;10.90;6.63;;;;;;;5.57;100.00;99385.69;4992814;28;20204;-59
2023/12/20 06:57:53;;;;;;;8.60;7.13;;;;;;;5.61;100.00;99382.28;4998680;28;20641;-59
2023/12/20 07:00:21;;;;;;;8.27;7.27;;;;;;;5.62;100.00;99376.31;4990194;28;20216;-58
2023/12/20 07:02:50;;;;;;;9.67;7.80;;;;;;;5.62;100.00;99390.78;5000338;28;20211;-58
2023/12/20 07:05:19;;;;;;;8.43;7.33;;;;;;;5.62;100.00;99381.41;4989846;28;20204;-60
2023/12/20 07:07:48;;;;;;;8.37;7.07;;;;;;;5.63;100.00;99382.25;4989284;28;20683;-58
2023/12/20 07:10:17;;;;;;;9.83;7.83;;;;;;;5.64;100.00;99366.09;4990816;28;20200;-60
2023/12/20 07:12:46;;;;;;;8.27;6.63;;;;;;;5.66;100.00;99372.03;4996115;28;20208;-59
2023/12/20 07:15:14;;;;;;;8.23;7.13;;;;;;;5.67;100.00;99373.72;4995736;28;20543;-58
2023/12/20 07:17:42;;;;;;;9.73;7.07;;;;;;;5.63;100.00;99378.00;4991136;28;20207;-59
2023/12/20 07:20:11;;;;;;;8.23;6.87;;;;;;;5.65;100.00;99375.44;4988819;28;20208;-59
2023/12/20 07:22:40;;;;;;;9.27;7.77;;;;;;;5.67;100.00;99383.94;4986676;28;20714;-59
2023/12/20 07:25:08;;;;;;;9.53;7.43;;;;;;;5.69;100.00;99388.22;4992558;28;20200;-60
2023/12/20 07:27:38;;;;;;;8.30;7.37;;;;;;;5.73;100.00;99391.63;4990925;28;20227;-59
2023/12/20 07:30:09;;;;;;;8.70;7.43;;;;;;;5.73;100.00;99389.06;4990281;28;20295;-59
2023/12/20 07:32:37;;;;;;;9.20;7.63;;;;;;;5.70;100.00;99384.78;4991156;28;20211;-59
2023/12/20 07:35:06;;;;;;;8.70;7.80;;;;;;;5.70;100.00;99391.63;4993371;28;20294;-58
2023/12/20 07:37:34;;;;;;;8.20;7.10;;;;;;;5.69;100.00;99389.91;4999170;28;20214;-60
2023/12/20 07:40:05;;;;;;;8.43;6.80;;;;;;;5.68;100.00;99385.69;4993862;28;20208;-59
2023/12/20 07:42:33;;;;;;;7.87;6.70;;;;;;;5.67;100.00;99382.28;5001039;28;20265;-60
2023/12/20 07:45:05;;;;;;;11.47;7.57;;;;;;;5.67;100.00;99377.16;4998790;28;20553;-59
2023/12/20 07:47:33;;;;;;;10.63;7.13;;;;;;;5.67;100.00;99383.94;4995348;28;20600;-60
2023/12/20 07:50:02;;;;;;;7.87;6.57;;;;;;;5.68;100.00;99375.44;4994307;28;20200;-60
2023/12/20 07:52:31;;;;;;;7.33;6.53;;;;;;;5.71;100.00;99380.56;4994486;28;20216;-59
2023/12/20 07:54:59;;;;;;;7.13;6.13;;;;;;;5.72;100.00;99382.25;4994781;28;20303;-59
2023/12/20 07:57:29;;;;;;;8.27;6.70;;;;;;;5.64;100.00;99377.16;4994581;28;20197;-60
2023/12/20 07:59:57;;;;;;;7.63;6.10;;;;;;;5.62;99.86;99376.31;4991279;28;20208;-58
2023/12/20 08:02:27;;;;;;;8.87;7.00;;;;;;;5.62;100.00;99370.34;4985990;28;20686;-58
2023/12/20 08:04:55;;;;;;;7.97;6.87;;;;;;;5.62;100.00;99371.19;4988938;28;20655;-59
2023/12/20 08:07:23;;;;;;;7.60;6.70;;;;;;;5.63;100.00;99377.16;4991310;28;20687;-62
2023/12/20 08:09:52;;;;;;;8.70;6.70;;;;;;;5.63;100.00;99379.69;4994685;28;20705;-60
2023/12/20 08:12:20;;;;;;;8.67;6.37;;;;;;;5.63;100.00;99370.31;4998313;28;20258;-60
2023/12/20 08:14:48;;;;;;;8.10;6.73;;;;;;;5.60;100.00;99377.16;4994433;28;20744;-60
2023/12/20 08:17:18;;;;;;;8.10;6.50;;;;;;;5.58;100.00;99375.44;4994205;28;20557;-60
2023/12/20 08:19:48;;;;;;;7.03;5.83;;;;;;;5.61;100.00;99372.06;4993462;28;20258;-59
2023/12/20 08:22:16;;;;;;;7.63;6.73;;;;;;;5.64;100.00;99378.88;4993923;28;20250;-59
2023/12/20 08:24:44;;;;;;;8.27;6.20;;;;;;;5.58;100.00;99370.34;4991241;28;20234;-60
2023/12/20 08:27:12;;;;;;;6.90;6.20;;;;;;;5.52;100.00;99370.38;4993764;28;20212;-61
2023/12/20 08:29:40;;;;;;;8.47;5.93;;;;;;;5.55;100.00;99377.16;4989027;28;20208;-59
2023/12/20 08:32:08;;;;;;;7.70;6.20;;;;;;;5.59;100.00;99368.63;4992581;28;20208;-62
2023/12/20 08:34:36;;;;;;;8.43;5.70;;;;;;;5.62;100.00;99366.06;4993887;28;20208;-72
2023/12/20 08:37:06;;;;;;;6.70;6.00;;;;;;;5.65;100.00;99368.63;5000678;28;20216;-62
2023/12/20 08:39:34;;;;;;;8.60;6.00;;;;;;;5.65;100.00;99370.34;4992532;28;20228;-60
2023/12/20 08:42:02;;;;;;;8.33;5.50;;;;;;;5.65;100.00;99370.34;4990782;28;20215;-60
2023/12/20 08:44:30;;;;;;;6.93;6.10;;;;;;;5.62;100.00;99371.19;4999352;28;20577;-60
2023/12/20 08:46:58;;;;;;;7.03;6.03;;;;;;;5.60;99.89;99367.81;4992877;28;20563;-58
2023/12/20 08:49:26;;;;;;;5.90;5.30;;;;;;;5.60;100.00;99375.47;4993311;28;20706;-60
2023/12/20 08:51:54;;;;;;;5.43;4.80;;;;;;;5.62;100.00;99375.44;4992788;28;20655;-63
2023/12/20 08:54:24;;;;;;;10.20;6.40;;;;;;;5.63;100.00;99375.44;4994542;28;20270;-62
2023/12/20 08:56:52;;;;;;;7.20;5.50;;;;;;;5.61;99.90;99377.16;4988493;28;20205;-63
2023/12/20 08:59:20;;;;;;;7.83;6.03;;;;;;;5.60;100.00;99377.16;4994264;28;20540;-62
2023/12/20 09:01:48;;;;;;;6.97;6.00;;;;;;;5.57;100.00;99371.22;4991481;28;20207;-62
2023/12/20 09:04:16;;;;;;;6.27;5.13;;;;;;;5.55;100.00;99369.50;4993970;28;20208;-62
2023/12/20 09:06:44;;;;;;;8.40;6.20;;;;;;;5.53;100.00;99359.28;4994706;28;20208;-63
2023/12/20 09:09:13;;;;;;;7.67;6.03;;;;;;;5.52;100.00;99360.16;4992949;28;20212;-61
2023/12/20 09:11:46;;;;;;;6.73;5.70;;;;;;;5.56;100.00;99356.75;4994269;28;20208;-63
2023/12/20 09:14:14;;;;;;;5.87;5.20;;;;;;;5.58;100.00;99355.00;4987493;28;20569;-61
2023/12/20 09:16:42;;;;;;;7.27;6.20;;;;;;;5.61;100.00;99355.88;4987364;28;20199;-62
2023/12/20 09:19:10;;;;;;;7.33;5.20;;;;;;;5.60;100.00;99354.16;4992655;28;20210;-64
2023/12/20 09:21:38;;;;;;;6.63;5.53;;;;;;;5.60;100.00;99351.59;4993993;28;20766;-61
2023/12/20 09:24:06;;;;;;;6.90;5.37;;;;;;;5.57;100.00;99347.38;4991705;28;20647;-60
2023/12/20 09:26:39;;;;;;;7.63;5.87;;;;;;;5.58;100.00;99343.94;4989857;28;20255;-61
2023/12/20 09:29:10;;;;;;;8.03;5.90;;;;;;;5.54;100.00;99332.88;4999041;28;20703;-61
2023/12/20 09:31:38;;;;;;;7.47;5.83;;;;;;;5.57;100.00;99327.78;4991206;28;20207;-59
2023/12/20 09:34:06;;;;;;;6.90;5.67;;;;;;;5.59;100.00;99330.31;4992621;28;20224;-58
2023/12/20 09:36:36;;;;;;;7.43;5.77;;;;;;;5.58;100.00;99328.59;4996138;28;20650;-58
2023/12/20 09:39:03;;;;;;;7.20;5.20;;;;;;;5.58;100.00;99333.72;4991955;28;20212;-60
2023/12/20 09:41:38;;;;;;;5.90;5.03;;;;;;;5.58;100.00;99328.59;4996807;28;20247;-56
2023/12/20 09:44:06;;;;;;;5.97;5.37;;;;;;;5.55;100.00;99328.63;4993620;28;20211;-60
2023/12/20 09:46:39;;;;;;;6.63;5.67;;;;;;;5.53;100.00;99327.78;4992299;28;20223;-56
2023/12/20 09:49:07;;;;;;;6.13;5.17;;;;;;;5.51;100.00;99312.44;4993425;28;20220;-57
2023/12/20 09:51:36;;;;;;;6.20;5.40;;;;;;;5.52;100.00;99319.28;4999045;28;20673;-58
2023/12/20 09:54:05;;;;;;;6.67;5.23;;;;;;;5.54;100.00;99316.69;4988827;28;20711;-59
2023/12/20 09:56:33;;;;;;;7.30;5.50;;;;;;;5.57;100.00;99324.38;4991710;28;20212;-58
2023/12/20 09:59:01;;;;;;;6.97;4.90;;;;;;;5.56;100.00;99320.13;4986018;28;20207;-58
2023/12/20 10:01:30;;;;;;;6.77;5.37;;;;;;;5.54;100.00;99321.81;4989591;28;20211;-59
2023/12/20 10:04:00;;;;;;;5.50;5.00;;;;;;;5.53;100.00;99307.34;4989870;28;20208;-60
2023/12/20 10:06:28;;;;;;;5.57;4.90;;;;;;;5.51;100.00;99307.34;4988489;28;20228;-59
2023/12/20 10:08:56;;;;;;;6.77;4.87;;;;;;;5.51;100.00;99311.59;4992049;28;20572;-57
2023/12/20 10:11:24;;;;;;;8.23;4.80;;;;;;;5.53;100.00;99305.63;4992869;28;20236;-57
2023/12/20 10:13:52;;;;;;;5.60;5.00;;;;;;;5.55;100.00;99314.13;4990282;28;20207;-58
2023/12/20 10:16:25;;;;;;;6.43;5.43;;;;;;;5.57;100.00;99321.81;4991119;28;20286;-57
2023/12/20 10:18:54;;;;;;;6.87;5.43;;;;;;;5.56;100.00;99309.91;4990335;28;20263;-59
2023/12/20 10:21:26;;;;;;;6.80;5.30;;;;;;;5.57;100.00;99307.31;4988456;28;20781;-58
2023/12/20 10:23:54;;;;;;;6.17;5.57;;;;;;;5.60;100.00;99306.47;4984428;28;20223;-59
2023/12/20 10:26:24;;;;;;;5.73;5.23;;;;;;;5.60;100.00;99305.59;4989867;28;20207;-63
2023/12/20 10:28:54;;;;;;;5.70;4.57;;;;;;;5.60;100.00;99300.47;4989127;28;20226;-63
2023/12/20 10:31:29;;;;;;;6.90;5.50;;;;;;;5.63;100.00;99290.25;4985787;28;20215;-62
2023/12/20 10:33:58;;;;;;;6.50;5.40;;;;;;;5.62;100.00;99294.53;4990455;28;20654;-61
2023/12/20 10:36:29;;;;;;;8.73;5.47;;;;;;;5.62;100.00;99296.22;4986565;28;20327;-61
2023/12/20 10:38:58;;;;;;;7.70;5.63;;;;;;;5.62;100.00;99289.41;4992148;28;20290;-59
2023/12/20 10:41:29;;;;;;;6.57;5.33;;;;;;;5.62;100.00;99294.53;4992460;28;20240;-59
2023/12/20 10:44:00;;;;;;;9.50;5.50;;;;;;;5.63;100.00;99287.69;4991879;28;20200;-58
2023/12/20 10:46:29;;;;;;;6.43;5.73;;;;;;;5.59;100.00;99289.41;4990649;28;20683;-57
2023/12/20 10:48:58;;;;;;;5.93;5.30;;;;;;;5.60;100.00;99286.03;4990290;28;20208;-53
2023/12/20 10:51:29;;;;;;;5.47;4.53;;;;;;;5.62;100.00;99294.53;4999396;28;20199;-57
2023/12/20 10:53:57;;;;;;;6.50;5.47;;;;;;;5.62;100.00;99294.53;4989424;28;20283;-54
2023/12/20 10:56:31;;;;;;;5.43;4.93;;;;;;;5.62;100.00;99293.69;4989983;28;20208;-54
2023/12/20 10:59:05;;;;;;;5.73;5.00;;;;;;;5.61;100.00;99281.75;4995768;28;20206;-55
2023/12/20 11:01:34;;;;;;;6.20;5.27;;;;;;;5.63;100.00;99277.47;4994139;28;20207;-60
2023/12/20 11:04:08;;;;;;;6.43;4.67;;;;;;;5.65;100.00;99275.78;4993241;28;20214;-56
2023/12/20 11:06:46;;;;;;;5.97;5.30;;;;;;;5.67;100.00;99267.25;4998596;28;20245;-54
2023/12/20 11:09:21;;;;;;;8.07;4.70;;;;;;;5.70;100.00;99263.81;4999107;28;20238;-55
2023/12/20 11:12:02;;;;;;;5.33;4.70;;;;;;;5.68;100.00;99258.72;4994405;28;20200;-57
2023/12/20 11:14:40;;;;;;;7.60;5.03;;;;;;;5.70;100.00;99257.00;5001091;28;20633;-58
2023/12/20 11:17:08;;;;;;;5.10;4.53;;;;;;;5.63;99.75;99236.59;4993254;28;20199;-57
2023/12/20 11:19:39;;;;;;;5.43;4.83;;;;;;;5.68;99.41;99247.66;4993868;28;20772;-53
2023/12/20 11:22:10;;;;;;;5.20;4.70;;;;;;;5.67;99.39;99243.38;4993623;28;20261;-52
2023/12/20 11:24:46;;;;;;;5.43;4.93;;;;;;;5.63;99.71;99237.44;4993646;28;20204;-54
2023/12/20 11:27:14;;;;;;;6.13;4.87;;;;;;;5.63;100.00;99237.44;4990018;28;20742;-53
2023/12/20 11:29:44;;;;;;;6.33;5.10;;;;;;;5.66;100.00;99236.59;4994362;28;20220;-54
2023/12/20 11:32:30;;;;;;;5.73;4.97;;;;;;;5.68;100.00;99238.28;4994731;28;20239;-53
2023/12/20 11:34:59;;;;;;;5.77;5.03;;;;;;;5.67;100.00;99236.59;4995347;28;20206;-57
2023/12/20 11:37:36;;;;;;;5.63;4.80;;;;;;;5.68;100.00;99232.31;4993598;28;20212;-58
2023/12/20 11:40:07;;;;;;;6.27;4.73;;;;;;;5.68;100.00;99228.06;4998513;28;20203;-55